createdAt,value
2023-02-12T10:06:17.446Z,28.53
2023-02-12T10:08:40.209Z,14.30
2023-02-12T10:10:51.949Z,7.22
2023-02-12T10:13:04.044Z,9.93
2023-02-12T10:15:13.157Z,12.57
2023-02-12T10:17:40.165Z,6.93
2023-02-12T10:20:10.480Z,10.10
2023-02-12T10:22:55.026Z,8.70
2023-02-12T10:25:26.999Z,6.75
2023-02-12T10:27:49.474Z,6.72
2023-02-12T10:29:53.161Z,7.03
2023-02-12T10:32:04.772Z,7.70
2023-02-12T10:34:34.696Z,9.63
2023-02-12T10:36:44.485Z,11.48
2023-02-12T10:38:51.914Z,9.15
2023-02-12T10:41:01.796Z,8.45
2023-02-12T10:43:04.632Z,9.27
2023-02-12T10:45:15.380Z,9.25
2023-02-12T10:49:22.788Z,6.87
2023-02-12T10:51:46.471Z,10.65
2023-02-12T10:53:49.650Z,9.38
2023-02-12T10:56:25.992Z,11.07
2023-02-12T10:58:28.625Z,8.98
2023-02-12T11:00:37.028Z,7.97
2023-02-12T11:02:40.121Z,9.70
2023-02-12T11:04:42.725Z,8.98
2023-02-12T11:07:01.731Z,7.57
2023-02-12T11:09:05.929Z,9.98
2023-02-12T11:11:16.139Z,9.85
2023-02-12T11:13:28.956Z,11.75
2023-02-12T11:15:52.104Z,10.38
2023-02-12T11:18:09.132Z,7.78
2023-02-12T11:20:17.817Z,6.50
2023-02-12T11:22:20.712Z,9.82
2023-02-12T11:24:30.022Z,7.20
2023-02-12T11:26:33.701Z,6.43
2023-02-12T11:28:37.594Z,6.70
2023-02-12T11:31:03.918Z,8.70
2023-02-12T11:33:23.087Z,7.05
2023-02-12T11:35:28.447Z,5.90
2023-02-12T11:37:38.054Z,6.43
2023-02-12T11:39:46.220Z,9.20
2023-02-12T11:41:55.597Z,7.53
2023-02-12T11:43:59.354Z,6.47
2023-02-12T11:46:03.296Z,7.12
2023-02-12T11:48:20.997Z,9.05
2023-02-12T11:50:31.250Z,5.75
2023-02-12T11:52:38.100Z,6.57
2023-02-12T11:54:46.372Z,8.68
2023-02-12T11:56:49.654Z,9.43
2023-02-12T11:58:52.716Z,12.25
2023-02-12T12:01:14.229Z,9.77
2023-02-12T12:03:34.793Z,9.40
2023-02-12T12:05:45.800Z,8.32
2023-02-12T12:10:13.616Z,7.18
2023-02-12T12:12:23.284Z,9.63
2023-02-12T12:15:00.725Z,15.27
2023-02-12T12:17:32.604Z,11.65
2023-02-12T12:19:56.057Z,15.05
2023-02-12T12:22:14.505Z,10.82
2023-02-12T12:24:44.344Z,12.20
2023-02-12T12:27:00.658Z,7.97
2023-02-12T12:29:03.520Z,13.55
2023-02-12T12:31:12.525Z,10.52
2023-02-12T12:33:30.452Z,8.68
2023-02-12T12:35:46.125Z,14.23
2023-02-12T12:38:02.380Z,10.00
2023-02-12T12:40:17.661Z,9.20
2023-02-12T12:42:40.906Z,10.63
2023-02-12T12:44:49.781Z,9.88
2023-02-12T12:47:01.255Z,14.80
2023-02-12T12:49:32.626Z,12.55
2023-02-12T12:51:44.720Z,9.60
2023-02-12T12:54:23.186Z,10.57
2023-02-12T12:57:04.950Z,16.17
2023-02-12T12:59:36.889Z,12.35
2023-02-12T13:02:01.342Z,17.02
2023-02-12T13:04:28.887Z,10.40
2023-02-12T13:06:50.766Z,16.45
2023-02-12T13:09:50.305Z,10.38
2023-02-12T13:12:14.687Z,12.13
2023-02-12T13:15:02.595Z,13.68
2023-02-12T13:17:29.999Z,11.70
2023-02-12T13:20:07.066Z,15.43
2023-02-12T13:22:27.293Z,27.08
2023-02-12T13:24:38.142Z,38.92
2023-02-12T13:26:59.238Z,36.30
2023-02-12T13:29:13.593Z,40.22
2023-02-12T13:31:32.690Z,41.60
2023-02-12T13:34:01.645Z,45.05
2023-02-12T13:36:09.798Z,45.63
2023-02-12T13:38:41.128Z,49.50
2023-02-12T13:42:55.576Z,43.63
2023-02-12T13:45:07.755Z,45.80
2023-02-12T13:47:45.651Z,42.50
2023-02-12T13:50:25.775Z,45.50
2023-02-12T13:52:47.186Z,38.88
2023-02-12T13:54:58.297Z,44.83
2023-02-12T13:57:03.941Z,44.58
2023-02-12T13:59:33.282Z,46.65
2023-02-12T14:01:38.941Z,42.62
2023-02-12T14:03:42.806Z,43.05
2023-02-12T14:05:50.426Z,43.47
2023-02-12T14:08:05.868Z,42.42
2023-02-12T14:10:25.088Z,45.85
2023-02-12T14:12:35.609Z,48.33
2023-02-12T14:14:50.870Z,39.50
2023-02-12T14:16:54.662Z,40.58
2023-02-12T14:19:35.466Z,42.13
2023-02-12T14:21:41.488Z,65.12
2023-02-12T14:23:47.341Z,44.25
2023-02-12T14:25:58.942Z,48.90
2023-02-12T14:28:39.594Z,39.63
2023-02-12T14:30:43.381Z,43.17
2023-02-12T14:32:51.067Z,42.13
2023-02-12T14:34:54.678Z,42.08
2023-02-12T14:37:15.263Z,40.03
2023-02-12T14:39:21.652Z,40.83
2023-02-12T14:41:43.229Z,41.97
2023-02-12T14:44:27.345Z,44.13
2023-02-12T14:46:36.999Z,43.00
2023-02-12T14:48:51.032Z,39.55
2023-02-12T14:50:56.338Z,44.47
2023-02-12T14:53:05.697Z,38.03
2023-02-12T14:55:22.836Z,39.83
2023-02-12T14:57:42.666Z,37.22
2023-02-12T14:59:48.109Z,35.97
2023-02-12T15:01:52.771Z,32.65
2023-02-12T15:03:59.652Z,43.10
2023-02-12T15:09:11.796Z,31.70
2023-02-12T15:11:42.003Z,30.10
2023-02-12T15:13:49.843Z,31.35
2023-02-12T15:16:32.672Z,34.20
2023-02-12T15:18:36.639Z,29.05
2023-02-12T15:20:57.235Z,33.63
2023-02-12T15:23:00.478Z,33.23
2023-02-12T15:25:30.754Z,29.58
2023-02-12T15:27:34.271Z,33.40
2023-02-12T15:29:44.269Z,31.20
2023-02-12T15:33:59.702Z,37.95
2023-02-12T15:36:04.875Z,37.70
2023-02-12T15:38:09.110Z,33.13
2023-02-12T15:40:16.670Z,34.05
2023-02-12T15:42:40.947Z,27.85
2023-02-12T15:44:46.198Z,28.80
2023-02-12T15:46:55.913Z,36.67
2023-02-12T15:49:00.828Z,32.73
2023-02-12T15:51:31.392Z,30.55
2023-02-12T15:53:35.203Z,36.78
2023-02-12T15:55:43.105Z,32.75
2023-02-12T15:57:57.547Z,30.12
2023-02-12T16:00:39.676Z,31.10
2023-02-12T16:02:43.161Z,29.95
2023-02-12T16:04:48.028Z,31.80
2023-02-12T16:06:55.920Z,29.92
2023-02-12T16:09:27.890Z,31.60
2023-02-12T16:11:33.172Z,33.35
2023-02-12T16:13:37.948Z,30.58
2023-02-12T16:15:44.065Z,32.80
2023-02-12T16:17:51.784Z,29.77
2023-02-12T16:19:59.553Z,42.35
2023-02-12T16:22:14.899Z,38.15
2023-02-12T16:24:33.476Z,36.13
2023-02-12T16:26:37.549Z,35.85
2023-02-12T16:28:54.739Z,32.70
2023-02-12T16:31:16.501Z,34.38
2023-02-12T16:33:33.789Z,39.42
2023-02-12T16:35:37.293Z,38.92
2023-02-12T16:37:40.630Z,39.75
2023-02-12T16:40:00.606Z,35.53
2023-02-12T16:42:04.351Z,35.75
2023-02-12T16:44:26.818Z,36.92
2023-02-12T16:46:45.864Z,38.33
2023-02-12T16:48:55.270Z,35.92
2023-02-12T16:50:59.874Z,35.67
2023-02-12T16:53:09.736Z,38.08
2023-02-12T16:55:16.598Z,38.67
2023-02-12T16:57:23.622Z,34.90
2023-02-12T16:59:27.715Z,37.90
2023-02-12T17:01:37.540Z,37.47
2023-02-12T17:03:42.914Z,39.88
2023-02-12T17:05:46.527Z,49.25
2023-02-12T17:07:50.842Z,38.17
2023-02-12T17:09:54.373Z,38.65
2023-02-12T17:11:57.602Z,43.55
2023-02-12T17:14:01.751Z,45.50
2023-02-12T17:16:06.948Z,41.65
2023-02-12T17:18:14.768Z,45.72
2023-02-12T17:20:19.205Z,39.97
2023-02-12T17:22:26.810Z,42.35
2023-02-12T17:24:32.464Z,44.47
2023-02-12T17:26:37.740Z,41.20
2023-02-12T17:28:42.083Z,42.78
2023-02-12T17:30:47.383Z,47.92
2023-02-12T17:32:51.577Z,35.60
2023-02-12T17:34:55.196Z,47.40
2023-02-12T17:36:59.730Z,42.00
2023-02-12T17:39:11.326Z,47.80
2023-02-12T17:43:20.529Z,42.65
2023-02-12T17:45:24.477Z,47.92
2023-02-12T17:47:28.271Z,46.08
2023-02-12T17:49:32.889Z,56.33
2023-02-12T17:51:38.335Z,43.97
2023-02-12T17:53:44.276Z,41.40
2023-02-12T17:55:47.567Z,42.65
2023-02-12T17:57:55.979Z,46.40
2023-02-12T17:59:59.780Z,45.00
2023-02-12T18:02:06.919Z,44.42
2023-02-12T18:04:11.235Z,50.30
2023-02-12T18:06:17.165Z,47.75
2023-02-12T18:08:20.746Z,46.05
2023-02-12T18:10:24.271Z,49.88
2023-02-12T18:12:28.099Z,50.08
2023-02-12T18:14:32.738Z,47.53
2023-02-12T18:16:42.617Z,44.03
2023-02-12T18:18:46.822Z,49.78
2023-02-12T18:20:51.104Z,53.72
2023-02-12T18:22:56.106Z,44.35
2023-02-12T18:24:59.591Z,50.72
2023-02-12T18:27:03.378Z,53.47
2023-02-12T18:29:07.911Z,48.33
2023-02-12T18:31:11.658Z,43.78
2023-02-12T18:33:15.883Z,48.22
2023-02-12T18:35:20.293Z,55.90
2023-02-12T18:37:25.202Z,51.70
2023-02-12T18:39:29.776Z,47.65
2023-02-12T18:41:40.740Z,44.38
2023-02-12T18:43:44.973Z,50.22
2023-02-12T18:45:48.885Z,47.70
2023-02-12T18:47:52.547Z,54.17
2023-02-12T18:49:58.569Z,54.90
2023-02-12T18:52:03.055Z,64.03
2023-02-12T18:54:12.850Z,64.45
2023-02-12T18:56:18.974Z,53.85
2023-02-12T18:58:26.112Z,51.72
2023-02-12T19:00:34.006Z,57.60
2023-02-12T19:02:38.582Z,53.28
2023-02-12T19:04:45.430Z,53.85
2023-02-12T19:06:54.207Z,51.80
2023-02-12T19:09:00.538Z,51.65
2023-02-12T19:11:06.630Z,48.33
2023-02-12T19:13:12.204Z,53.35
2023-02-12T19:15:16.159Z,56.40
2023-02-12T19:17:21.335Z,51.67
2023-02-12T19:19:27.541Z,90.03
2023-02-12T19:21:32.016Z,93.18
2023-02-12T19:23:36.619Z,71.20
2023-02-12T19:25:46.001Z,53.83
2023-02-12T19:27:49.810Z,57.10
2023-02-12T19:29:54.639Z,51.85
2023-02-12T19:32:01.072Z,60.50
2023-02-12T19:34:18.624Z,58.08
2023-02-12T19:36:22.924Z,58.15
2023-02-12T19:38:28.258Z,131.50
2023-02-12T19:40:32.836Z,83.65
2023-02-12T19:42:57.696Z,71.32
2023-02-12T19:45:05.224Z,97.20
2023-02-12T19:47:10.219Z,87.82
2023-02-12T19:49:18.386Z,74.57
2023-02-12T19:51:25.168Z,77.50
2023-02-12T19:53:29.441Z,82.50
2023-02-12T19:55:36.487Z,77.37
2023-02-12T19:57:41.715Z,74.50
2023-02-12T19:59:47.114Z,80.50
2023-02-12T20:01:51.407Z,79.97
2023-02-12T20:03:59.914Z,82.10
2023-02-12T20:06:07.732Z,82.05
2023-02-12T20:08:11.514Z,83.43
2023-02-12T20:10:18.222Z,98.00
2023-02-12T20:12:21.965Z,84.80
2023-02-12T20:14:28.144Z,75.57
2023-02-12T20:16:37.987Z,70.12
2023-02-12T20:18:47.136Z,74.68
2023-02-12T20:20:52.509Z,73.05
2023-02-12T20:22:57.431Z,72.07
2023-02-12T20:25:02.978Z,77.40
2023-02-12T20:27:07.089Z,62.25
2023-02-12T20:29:10.372Z,67.18
2023-02-12T20:31:23.828Z,70.10
2023-02-12T20:33:27.685Z,118.28
2023-02-12T20:35:32.172Z,61.70
2023-02-12T20:37:35.881Z,60.97
2023-02-12T20:39:42.342Z,65.12
2023-02-12T20:41:46.866Z,62.17
2023-02-12T20:43:51.636Z,62.67
2023-02-12T20:48:06.744Z,70.75
2023-02-12T20:50:11.169Z,57.45
2023-02-12T20:52:14.909Z,61.42
2023-02-12T20:54:20.356Z,53.92
2023-02-12T20:56:40.360Z,74.05
2023-02-12T20:58:45.543Z,58.17
2023-02-12T21:00:49.616Z,58.67
2023-02-12T21:02:55.015Z,50.83
2023-02-12T21:04:58.858Z,62.47
2023-02-12T21:07:02.921Z,54.65
2023-02-12T21:09:09.429Z,51.90
2023-02-12T21:11:20.005Z,52.90
2023-02-12T21:15:30.263Z,49.33
2023-02-12T21:17:34.209Z,48.22
2023-02-12T21:19:38.851Z,43.63
2023-02-12T21:21:46.386Z,46.97
2023-02-12T21:23:53.269Z,61.50
2023-02-12T21:26:10.046Z,58.15
2023-02-12T21:28:14.778Z,39.72
2023-02-12T21:30:18.343Z,41.03
2023-02-12T21:32:22.139Z,39.85
2023-02-12T21:34:25.528Z,43.05
2023-02-12T21:36:31.968Z,67.47
2023-02-12T21:38:40.081Z,34.78
2023-02-12T21:40:42.804Z,30.17
2023-02-12T21:42:45.747Z,29.73
2023-02-12T21:44:49.706Z,31.90
2023-02-12T21:46:53.283Z,28.95
2023-02-12T21:48:56.679Z,31.17
2023-02-12T21:51:00.747Z,36.47
2023-02-12T21:53:03.500Z,29.48
2023-02-12T21:55:06.355Z,29.85
2023-02-12T21:57:09.624Z,30.83
2023-02-12T21:59:13.360Z,31.60
2023-02-12T22:01:19.052Z,23.52
2023-02-12T22:03:22.603Z,28.92
2023-02-12T22:05:25.125Z,28.95
2023-02-12T22:07:27.721Z,29.52
2023-02-12T22:09:30.462Z,22.48
2023-02-12T22:11:32.808Z,26.30
2023-02-12T22:13:36.287Z,25.75
2023-02-12T22:15:38.978Z,28.08
2023-02-12T22:17:41.341Z,26.95
2023-02-12T22:19:43.788Z,25.33
2023-02-12T22:21:49.088Z,25.42
2023-02-12T22:23:52.518Z,29.10
2023-02-12T22:25:54.951Z,31.62
2023-02-12T22:27:57.572Z,43.47
2023-02-12T22:30:00.840Z,24.98
2023-02-12T22:32:03.287Z,25.50
2023-02-12T22:34:09.929Z,38.10
2023-02-12T22:36:12.528Z,29.55
2023-02-12T22:38:14.860Z,19.05
2023-02-12T22:40:17.473Z,27.92
2023-02-12T22:42:19.740Z,25.05
2023-02-12T22:44:22.300Z,42.88
2023-02-12T22:46:25.123Z,28.10
2023-02-12T22:48:28.747Z,30.10
2023-02-12T22:50:31.027Z,27.98
2023-02-12T22:52:33.701Z,24.98
2023-02-12T22:54:36.016Z,25.95
2023-02-12T22:56:38.323Z,25.20
2023-02-12T22:58:41.169Z,19.52
2023-02-12T23:00:43.653Z,19.95
2023-02-12T23:02:45.933Z,26.15
2023-02-12T23:04:48.579Z,20.98
